createdAt,value
2023-04-26T00:00:27.205Z,60.16
2023-04-26T00:01:27.166Z,62.80
2023-04-26T00:02:27.272Z,63.76
2023-04-26T00:03:27.292Z,60.09
2023-04-26T00:04:27.416Z,60.07
2023-04-26T00:05:27.260Z,60.20
2023-04-26T00:06:27.245Z,60.04
2023-04-26T00:07:27.135Z,63.72
2023-04-26T00:08:27.133Z,63.75
2023-04-26T00:09:27.140Z,60.00
2023-04-26T00:10:27.110Z,60.41
2023-04-26T00:11:27.131Z,59.99
2023-04-26T00:12:27.135Z,64.31
2023-04-26T00:13:27.130Z,63.64
2023-04-26T00:14:27.102Z,64.79
2023-04-26T00:15:27.088Z,62.62
2023-04-26T00:16:27.107Z,63.30
2023-04-26T00:17:27.081Z,61.47
2023-04-26T00:18:27.879Z,60.61
2023-04-26T00:19:27.079Z,63.76
2023-04-26T00:20:27.075Z,60.12
2023-04-26T00:21:27.032Z,60.14
2023-04-26T00:22:27.074Z,60.51
2023-04-26T00:23:27.049Z,64.32
2023-04-26T00:24:27.926Z,64.28
2023-04-26T00:25:27.021Z,60.45
2023-04-26T00:26:27.066Z,61.80
2023-04-26T00:27:26.999Z,61.73
2023-04-26T00:28:27.030Z,61.13
2023-04-26T00:29:27.014Z,64.09
2023-04-26T00:30:27.018Z,60.21
2023-04-26T00:31:27.029Z,63.81
2023-04-26T00:32:27.062Z,67.01
2023-04-26T00:33:27.009Z,62.43
2023-04-26T00:34:26.966Z,64.60
2023-04-26T00:35:26.989Z,60.30
2023-04-26T00:36:26.961Z,62.95
2023-04-26T00:37:26.946Z,63.28
2023-04-26T00:38:26.949Z,61.16
2023-04-26T00:39:27.963Z,61.25
2023-04-26T00:40:26.981Z,60.15
2023-04-26T00:41:26.924Z,60.11
2023-04-26T00:42:26.960Z,60.16
2023-04-26T00:43:26.914Z,60.23
2023-04-26T00:44:26.956Z,60.10
2023-04-26T00:45:26.946Z,60.22
2023-04-26T00:46:26.931Z,60.36
2023-04-26T00:47:26.956Z,60.39
2023-04-26T00:48:26.908Z,63.16
2023-04-26T00:49:26.883Z,62.45
2023-04-26T00:50:26.869Z,62.00
2023-04-26T00:51:26.864Z,60.48
2023-04-26T00:52:26.885Z,60.34
2023-04-26T00:53:26.836Z,63.01
2023-04-26T00:54:26.864Z,60.54
2023-04-26T00:55:26.866Z,60.47
2023-04-26T00:56:26.833Z,60.39
2023-04-26T00:57:26.860Z,61.72
2023-04-26T00:58:26.825Z,62.00
2023-04-26T00:59:26.805Z,60.40
2023-04-26T01:00:26.800Z,60.30
2023-04-26T01:01:26.810Z,61.41
2023-04-26T01:02:26.893Z,61.64
2023-04-26T01:03:26.965Z,60.36
2023-04-26T01:04:26.826Z,60.27
2023-04-26T01:05:26.781Z,60.23
2023-04-26T01:06:26.798Z,60.22
2023-04-26T01:07:26.894Z,60.28
2023-04-26T01:08:26.747Z,60.29
2023-04-26T01:09:26.754Z,60.31
2023-04-26T01:10:26.747Z,60.38
2023-04-26T01:11:26.772Z,63.46
2023-04-26T01:12:26.751Z,60.27
2023-04-26T01:13:26.730Z,65.35
2023-04-26T01:14:26.733Z,60.26
2023-04-26T01:15:26.704Z,61.47
2023-04-26T01:16:26.824Z,63.60
2023-04-26T01:17:26.810Z,60.20
2023-04-26T01:18:26.742Z,62.63
2023-04-26T01:19:26.695Z,60.13
2023-04-26T01:20:26.694Z,62.42
2023-04-26T01:21:26.711Z,60.13
2023-04-26T01:22:26.675Z,60.00
2023-04-26T01:23:26.700Z,60.28
2023-04-26T01:24:26.654Z,63.25
2023-04-26T01:25:26.658Z,61.39
2023-04-26T01:26:26.653Z,60.73
2023-04-26T01:27:26.650Z,60.01
2023-04-26T01:28:26.611Z,60.10
2023-04-26T01:29:26.655Z,62.14
2023-04-26T01:30:26.632Z,71.40
2023-04-26T01:31:26.785Z,60.28
2023-04-26T01:32:26.644Z,60.00
2023-04-26T01:33:26.589Z,65.12
2023-04-26T01:34:26.607Z,60.10
2023-04-26T01:35:26.605Z,65.61
2023-04-26T01:36:26.573Z,60.01
2023-04-26T01:37:26.608Z,59.90
2023-04-26T01:38:26.580Z,60.01
2023-04-26T01:39:26.622Z,59.99
2023-04-26T01:40:26.551Z,61.77
2023-04-26T01:41:26.615Z,60.26
2023-04-26T01:42:26.588Z,62.12
2023-04-26T01:43:26.578Z,61.66
2023-04-26T01:44:26.528Z,62.64
2023-04-26T01:45:26.524Z,65.14
2023-04-26T01:46:26.577Z,60.02
2023-04-26T01:47:26.559Z,59.94
2023-04-26T01:48:26.500Z,60.11
2023-04-26T01:49:26.496Z,64.26
2023-04-26T01:50:26.495Z,60.18
2023-04-26T01:51:26.482Z,60.27
2023-04-26T01:52:26.519Z,60.27
2023-04-26T01:53:26.483Z,65.11
2023-04-26T01:54:26.483Z,65.26
2023-04-26T01:55:26.548Z,62.66
2023-04-26T01:56:26.447Z,60.40
2023-04-26T01:57:26.478Z,62.16
2023-04-26T01:58:26.474Z,60.44
2023-04-26T01:59:26.454Z,60.47
2023-04-26T02:00:26.426Z,62.58
2023-04-26T02:01:26.424Z,60.84
2023-04-26T02:02:26.430Z,60.37
2023-04-26T02:03:26.487Z,60.31
2023-04-26T02:04:26.421Z,60.40
2023-04-26T02:05:26.467Z,60.34
2023-04-26T02:06:26.411Z,60.53
2023-04-26T02:07:26.399Z,62.80
2023-04-26T02:08:27.430Z,60.39
2023-04-26T02:09:26.385Z,60.61
2023-04-26T02:10:26.384Z,64.58
2023-04-26T02:11:26.381Z,60.51
2023-04-26T02:12:26.364Z,62.90
2023-04-26T02:13:26.353Z,60.73
2023-04-26T02:14:26.389Z,63.63
2023-04-26T02:15:26.349Z,61.35
2023-04-26T02:16:26.358Z,60.62
2023-04-26T02:17:26.382Z,64.90
2023-04-26T02:18:26.313Z,63.45
2023-04-26T02:19:26.293Z,62.36
2023-04-26T02:20:26.369Z,60.55
2023-04-26T02:21:26.327Z,60.53
2023-04-26T02:22:26.278Z,61.80
2023-04-26T02:23:26.283Z,61.59
2023-04-26T02:24:26.308Z,61.44
2023-04-26T02:25:26.285Z,62.81
2023-04-26T02:26:26.276Z,60.56
2023-04-26T02:27:26.261Z,60.54
2023-04-26T02:28:26.315Z,60.93
2023-04-26T02:29:42.164Z,63.86
2023-04-26T02:30:28.249Z,62.06
2023-04-26T02:31:26.237Z,62.56
2023-04-26T02:32:26.245Z,61.43
2023-04-26T02:33:26.236Z,61.85
2023-04-26T02:34:26.223Z,60.74
2023-04-26T02:35:26.249Z,62.52
2023-04-26T02:36:26.219Z,66.71
2023-04-26T02:37:26.176Z,63.40
2023-04-26T02:38:26.224Z,68.97
2023-04-26T02:39:26.204Z,60.64
2023-04-26T02:40:26.211Z,60.70
2023-04-26T02:41:26.170Z,63.83
2023-04-26T02:42:26.192Z,60.68
2023-04-26T02:43:26.183Z,66.91
2023-04-26T02:44:26.170Z,62.81
2023-04-26T02:45:26.188Z,63.59
2023-04-26T02:46:26.167Z,61.01
2023-04-26T02:47:26.165Z,62.32
2023-04-26T02:48:26.140Z,63.86
2023-04-26T02:49:26.155Z,64.23
2023-04-26T02:50:26.103Z,67.28
2023-04-26T02:51:26.196Z,65.73
2023-04-26T02:52:26.176Z,64.89
2023-04-26T02:53:26.096Z,63.83
2023-04-26T02:54:26.118Z,62.81
2023-04-26T02:55:26.069Z,62.33
2023-04-26T02:56:26.082Z,64.23
2023-04-26T02:57:26.074Z,62.61
2023-04-26T02:58:26.049Z,64.65
2023-04-26T02:59:26.108Z,66.52
2023-04-26T03:00:26.077Z,65.49
2023-04-26T03:01:26.061Z,65.50
2023-04-26T03:02:26.227Z,64.43
2023-04-26T03:03:26.162Z,62.73
2023-04-26T03:04:26.047Z,62.40
2023-04-26T03:05:25.999Z,66.83
2023-04-26T03:06:26.028Z,62.61
2023-04-26T03:07:26.059Z,67.15
2023-04-26T03:08:26.049Z,65.03
2023-04-26T03:09:25.970Z,64.92
2023-04-26T03:10:25.972Z,70.59
2023-04-26T03:11:25.984Z,66.39
2023-04-26T03:12:25.972Z,67.12
2023-04-26T03:13:25.949Z,68.92
2023-04-26T03:14:25.953Z,68.79
2023-04-26T03:15:25.966Z,61.79
2023-04-26T03:16:26.005Z,67.62
2023-04-26T03:17:26.037Z,65.89
2023-04-26T03:18:25.916Z,64.33
2023-04-26T03:19:25.916Z,69.89
2023-04-26T03:20:25.961Z,68.21
2023-04-26T03:21:25.918Z,64.73
2023-04-26T03:22:25.910Z,65.10
2023-04-26T03:23:25.930Z,69.00
2023-04-26T03:24:25.935Z,67.26
2023-04-26T03:25:25.955Z,64.12
2023-04-26T03:26:25.876Z,63.53
2023-04-26T03:27:25.936Z,66.31
2023-04-26T03:28:25.863Z,64.12
2023-04-26T03:29:25.893Z,66.81
2023-04-26T03:30:25.854Z,64.42
2023-04-26T03:31:25.906Z,69.23
2023-04-26T03:32:25.873Z,66.52
2023-04-26T03:33:25.861Z,73.10
2023-04-26T03:34:25.843Z,64.74
2023-04-26T03:35:25.837Z,68.64
2023-04-26T03:36:25.823Z,71.83
2023-04-26T03:37:25.870Z,69.76
2023-04-26T03:38:25.818Z,74.90
2023-04-26T03:39:25.812Z,70.53
2023-04-26T03:40:25.830Z,68.53
2023-04-26T03:41:25.860Z,69.58
2023-04-26T03:42:25.782Z,66.05
2023-04-26T03:43:25.780Z,74.16
2023-04-26T03:44:25.810Z,71.35
2023-04-26T03:45:25.770Z,68.62
2023-04-26T03:46:25.832Z,67.31
2023-04-26T03:47:25.785Z,71.31
2023-04-26T03:48:26.760Z,72.98
2023-04-26T03:49:25.727Z,68.49
2023-04-26T03:50:25.839Z,67.14
2023-04-26T03:51:25.741Z,74.45
2023-04-26T03:52:25.714Z,72.28
2023-04-26T03:53:25.766Z,71.31
2023-04-26T03:54:25.732Z,71.49
2023-04-26T03:55:25.707Z,71.75
2023-04-26T03:56:25.727Z,68.75
2023-04-26T03:57:25.695Z,65.24
2023-04-26T03:58:25.703Z,74.08
2023-04-26T03:59:25.681Z,69.76
2023-04-26T04:00:25.708Z,71.04
2023-04-26T04:01:25.679Z,70.74
2023-04-26T04:02:25.777Z,72.68
2023-04-26T04:03:25.899Z,70.76
2023-04-26T04:04:25.863Z,71.05
2023-04-26T04:05:25.646Z,69.51
2023-04-26T04:06:25.647Z,72.50
2023-04-26T04:07:25.639Z,67.34
2023-04-26T04:08:25.667Z,71.89
2023-04-26T04:09:25.614Z,70.54
2023-04-26T04:10:25.614Z,72.08
2023-04-26T04:11:25.615Z,68.92
2023-04-26T04:12:25.577Z,70.93
2023-04-26T04:13:25.582Z,69.18
2023-04-26T04:14:25.565Z,71.29
2023-04-26T04:15:25.618Z,72.84
2023-04-26T04:16:25.608Z,69.57
2023-04-26T04:17:25.632Z,71.70
2023-04-26T04:18:25.624Z,71.34
2023-04-26T04:19:26.611Z,70.05
2023-04-26T04:20:25.610Z,71.48
2023-04-26T04:21:25.512Z,70.43
2023-04-26T04:22:25.529Z,67.89
2023-04-26T04:23:25.552Z,72.03
2023-04-26T04:24:25.523Z,70.79
2023-04-26T04:25:25.555Z,73.66
2023-04-26T04:26:25.509Z,72.03
2023-04-26T04:27:25.527Z,71.02
2023-04-26T04:28:25.532Z,71.90
2023-04-26T04:29:25.514Z,73.58
2023-04-26T04:30:25.486Z,72.19
2023-04-26T04:31:25.486Z,72.79
2023-04-26T04:32:25.505Z,71.66
2023-04-26T04:33:25.459Z,71.43
2023-04-26T04:34:31.541Z,70.77
2023-04-26T04:35:25.426Z,73.94
2023-04-26T04:36:25.431Z,70.52
2023-04-26T04:37:25.434Z,71.42
2023-04-26T04:38:25.457Z,72.02
2023-04-26T04:39:25.442Z,72.64
2023-04-26T04:40:25.413Z,72.21
2023-04-26T04:41:25.410Z,72.79
2023-04-26T04:42:25.422Z,71.43
2023-04-26T04:43:25.373Z,71.62
2023-04-26T04:44:25.371Z,71.58
2023-04-26T04:45:25.352Z,73.65
2023-04-26T04:46:25.398Z,72.42
2023-04-26T04:47:25.417Z,73.98
2023-04-26T04:48:25.349Z,73.56
2023-04-26T04:49:25.385Z,71.79
2023-04-26T04:50:25.373Z,72.72
2023-04-26T04:51:25.403Z,75.20
2023-04-26T04:52:25.325Z,73.11
2023-04-26T04:53:25.329Z,71.52
2023-04-26T04:54:25.328Z,72.29
2023-04-26T04:55:25.334Z,71.83
2023-04-26T04:56:25.316Z,68.62
2023-04-26T04:57:26.913Z,70.37
2023-04-26T04:58:25.347Z,71.80
2023-04-26T04:59:25.301Z,76.41
2023-04-26T05:00:25.301Z,74.06
2023-04-26T05:01:25.299Z,71.80
2023-04-26T05:02:25.428Z,72.71
2023-04-26T05:03:25.358Z,70.12
2023-04-26T05:04:25.454Z,71.12
2023-04-26T05:05:25.234Z,75.26
2023-04-26T05:06:25.280Z,73.88
2023-04-26T05:07:26.367Z,72.25
2023-04-26T05:08:25.843Z,70.25
2023-04-26T05:09:25.217Z,73.37
2023-04-26T05:10:25.900Z,75.36
2023-04-26T05:11:33.413Z,71.25
2023-04-26T05:12:25.243Z,75.91
2023-04-26T05:13:25.228Z,72.80
2023-04-26T05:14:25.220Z,70.10
2023-04-26T05:15:25.182Z,72.13
2023-04-26T05:16:25.221Z,71.75
2023-04-26T05:17:25.296Z,74.09
2023-04-26T05:18:25.150Z,72.36
2023-04-26T05:19:25.189Z,73.53
2023-04-26T05:20:25.149Z,72.84
2023-04-26T05:21:25.151Z,73.34
2023-04-26T05:22:25.151Z,70.62
2023-04-26T05:23:25.196Z,72.09
2023-04-26T05:24:25.210Z,75.51
2023-04-26T05:25:25.135Z,73.69
2023-04-26T05:26:25.130Z,75.62
2023-04-26T05:27:25.099Z,70.10
2023-04-26T05:28:25.141Z,75.15
2023-04-26T05:29:25.180Z,75.40
2023-04-26T05:30:25.135Z,70.38
2023-04-26T05:31:25.177Z,71.40
2023-04-26T05:32:25.942Z,71.50
2023-04-26T05:33:25.067Z,73.42
2023-04-26T05:34:25.111Z,73.41
2023-04-26T05:35:25.087Z,73.47
2023-04-26T05:36:25.699Z,73.02
2023-04-26T05:37:25.057Z,75.13
2023-04-26T05:38:25.057Z,72.16
2023-04-26T05:39:25.026Z,72.49
2023-04-26T05:40:25.050Z,75.83
2023-04-26T05:41:25.080Z,70.47
2023-04-26T05:42:25.069Z,75.47
2023-04-26T05:43:25.072Z,73.99
2023-04-26T05:44:25.026Z,73.26
2023-04-26T05:45:25.079Z,72.74
2023-04-26T05:46:26.036Z,71.84
2023-04-26T05:47:25.040Z,71.40
2023-04-26T05:48:24.984Z,72.02
2023-04-26T05:49:25.001Z,73.60
2023-04-26T05:50:24.974Z,69.88
2023-04-26T05:51:24.973Z,69.66
2023-04-26T05:52:25.030Z,72.03
2023-04-26T05:53:24.997Z,74.41
2023-04-26T05:54:24.967Z,69.45
2023-04-26T05:55:24.935Z,75.23
2023-04-26T05:56:24.923Z,72.96
2023-04-26T05:57:25.008Z,71.90
2023-04-26T05:58:24.920Z,71.66
2023-04-26T05:59:24.933Z,70.35
2023-04-26T06:00:24.947Z,74.16
2023-04-26T06:01:24.945Z,73.03
2023-04-26T06:02:25.146Z,72.82
2023-04-26T06:03:25.158Z,71.76
2023-04-26T06:04:25.052Z,73.66
2023-04-26T06:05:25.027Z,69.89
2023-04-26T06:06:24.864Z,70.93
2023-04-26T06:07:24.936Z,69.11
2023-04-26T06:08:24.904Z,68.96
2023-04-26T06:09:24.864Z,69.80
2023-04-26T06:10:24.989Z,73.02
2023-04-26T06:11:24.971Z,75.09
2023-04-26T06:12:24.829Z,74.21
2023-04-26T06:13:24.878Z,73.12
2023-04-26T06:14:30.341Z,74.99
2023-04-26T06:15:26.909Z,72.58
2023-04-26T06:16:24.942Z,74.17
2023-04-26T06:17:24.872Z,74.00
2023-04-26T06:18:24.811Z,73.74
2023-04-26T06:19:24.828Z,71.57
2023-04-26T06:20:24.900Z,70.55
2023-04-26T06:21:24.768Z,72.21
2023-04-26T06:22:24.803Z,75.35
2023-04-26T06:23:24.793Z,70.85
2023-04-26T06:24:24.785Z,72.00
2023-04-26T06:25:24.821Z,76.91
2023-04-26T06:26:24.767Z,70.04
2023-04-26T06:27:24.765Z,73.64
2023-04-26T06:28:24.750Z,74.23
2023-04-26T06:29:24.741Z,74.29
2023-04-26T06:30:24.809Z,73.31
2023-04-26T06:31:58.176Z,71.26
2023-04-26T06:32:58.178Z,71.58
2023-04-26T06:33:59.195Z,72.13
2023-04-26T06:34:58.131Z,69.14
2023-04-26T06:35:24.714Z,77.74
2023-04-26T06:36:24.699Z,71.89
2023-04-26T06:37:24.728Z,69.74
2023-04-26T06:38:24.695Z,75.72
2023-04-26T06:39:25.671Z,72.68
2023-04-26T06:40:24.689Z,70.10
2023-04-26T06:41:24.749Z,70.55
2023-04-26T06:42:24.710Z,72.64
2023-04-26T06:43:24.673Z,68.39
2023-04-26T06:44:24.675Z,73.16
2023-04-26T06:45:25.536Z,71.82
2023-04-26T06:46:24.736Z,70.78
2023-04-26T06:47:24.709Z,67.26
2023-04-26T06:48:24.657Z,73.92
2023-04-26T06:49:24.650Z,70.21
2023-04-26T06:50:24.604Z,71.70
2023-04-26T06:51:24.694Z,72.96
2023-04-26T06:52:24.643Z,71.00
2023-04-26T06:53:24.618Z,72.55
2023-04-26T06:54:24.621Z,69.09
2023-04-26T06:55:24.576Z,73.80
2023-04-26T06:56:24.839Z,68.94
2023-04-26T06:57:24.643Z,71.27
2023-04-26T06:58:24.580Z,70.49
2023-04-26T06:59:24.568Z,66.40
2023-04-26T07:00:24.548Z,73.55
2023-04-26T07:01:24.595Z,69.28
2023-04-26T07:02:24.791Z,68.95
2023-04-26T07:03:24.672Z,71.72
2023-04-26T07:04:24.828Z,72.05
2023-04-26T07:05:24.529Z,71.01
2023-04-26T07:06:24.536Z,71.67
2023-04-26T07:07:24.528Z,71.71
2023-04-26T07:08:24.480Z,69.29
2023-04-26T07:09:24.482Z,75.03
2023-04-26T07:10:24.529Z,73.03
2023-04-26T07:11:26.281Z,70.62
2023-04-26T07:12:25.496Z,70.06
2023-04-26T07:13:24.472Z,69.57
2023-04-26T07:14:24.502Z,71.89
2023-04-26T07:15:24.461Z,71.06
2023-04-26T07:16:24.563Z,74.48
2023-04-26T07:17:24.499Z,72.62
2023-04-26T07:18:24.456Z,70.81
2023-04-26T07:19:24.454Z,72.42
2023-04-26T07:20:24.454Z,71.91
2023-04-26T07:21:24.407Z,69.88
2023-04-26T07:22:24.418Z,66.76
2023-04-26T07:23:24.571Z,65.15
2023-04-26T07:24:24.417Z,71.56
2023-04-26T07:25:24.423Z,67.54
2023-04-26T07:26:24.411Z,73.24
2023-04-26T07:27:24.407Z,68.14
2023-04-26T07:28:24.416Z,74.58
2023-04-26T07:29:24.388Z,69.38
2023-04-26T07:30:24.374Z,72.02
2023-04-26T07:31:24.405Z,68.88
2023-04-26T07:32:24.441Z,72.11
2023-04-26T07:33:24.497Z,71.67
2023-04-26T07:34:24.387Z,72.16
2023-04-26T07:35:24.406Z,67.34
2023-04-26T07:36:25.146Z,74.27
2023-04-26T07:37:25.354Z,65.79
2023-04-26T07:38:24.347Z,70.43
2023-04-26T07:39:24.392Z,71.25
2023-04-26T07:40:24.304Z,65.41
2023-04-26T07:41:24.318Z,71.92
2023-04-26T07:42:24.301Z,68.86
2023-04-26T07:43:24.325Z,67.83
2023-04-26T07:44:24.319Z,70.75
2023-04-26T07:45:24.359Z,70.97
2023-04-26T07:46:24.419Z,66.40
2023-04-26T07:47:24.332Z,72.30
2023-04-26T07:48:24.272Z,73.22
2023-04-26T07:49:24.264Z,74.62
2023-04-26T07:50:24.259Z,69.66
2023-04-26T07:51:24.257Z,71.64
2023-04-26T07:52:24.257Z,69.39
2023-04-26T07:53:24.247Z,69.96
2023-04-26T07:54:24.250Z,72.24
2023-04-26T07:55:24.225Z,70.85
2023-04-26T07:56:24.247Z,65.85
2023-04-26T07:57:24.242Z,69.76
2023-04-26T07:58:24.212Z,67.47
2023-04-26T07:59:24.221Z,69.96
2023-04-26T08:00:24.364Z,72.68
2023-04-26T08:01:24.185Z,69.14
2023-04-26T08:02:36.737Z,70.32
2023-04-26T08:03:26.376Z,69.60
2023-04-26T08:04:24.303Z,72.74
2023-04-26T08:05:24.473Z,70.94
2023-04-26T08:06:24.400Z,69.02
2023-04-26T08:07:24.244Z,64.76
2023-04-26T08:08:24.167Z,73.78
2023-04-26T08:09:24.152Z,71.05
2023-04-26T08:10:24.175Z,66.69
2023-04-26T08:11:24.244Z,67.29
2023-04-26T08:12:25.139Z,69.98
2023-04-26T08:13:24.840Z,70.64
2023-04-26T08:14:24.098Z,72.23
2023-04-26T08:15:24.122Z,69.71
2023-04-26T08:16:24.156Z,69.33
2023-04-26T08:17:24.154Z,61.31
2023-04-26T08:18:24.099Z,68.11
2023-04-26T08:19:24.087Z,71.95
2023-04-26T08:20:24.132Z,70.10
2023-04-26T08:21:24.064Z,73.76
2023-04-26T08:22:24.095Z,67.49
2023-04-26T08:23:24.040Z,66.60
2023-04-26T08:24:24.199Z,72.47
2023-04-26T08:25:24.044Z,71.81
2023-04-26T08:26:24.102Z,69.85
2023-04-26T08:27:24.054Z,69.06
2023-04-26T08:28:24.037Z,62.30
2023-04-26T08:29:24.065Z,68.98
2023-04-26T08:30:24.037Z,70.25
2023-04-26T08:31:24.062Z,71.87
2023-04-26T08:32:23.974Z,73.44
2023-04-26T08:33:23.963Z,65.81
2023-04-26T08:34:24.164Z,68.54
2023-04-26T08:35:23.994Z,67.79
2023-04-26T08:36:23.976Z,73.44
2023-04-26T08:37:23.973Z,74.74
2023-04-26T08:38:23.986Z,72.89
2023-04-26T08:39:23.922Z,72.51
2023-04-26T08:40:23.934Z,71.78
2023-04-26T08:41:24.517Z,72.67
2023-04-26T08:42:23.918Z,68.71
2023-04-26T08:43:24.527Z,72.19
2023-04-26T08:44:23.931Z,67.90
2023-04-26T08:45:23.941Z,73.74
2023-04-26T08:46:23.928Z,68.06
2023-04-26T08:47:23.931Z,70.85
2023-04-26T08:48:23.893Z,71.16
2023-04-26T08:49:23.901Z,69.58
2023-04-26T08:50:24.272Z,70.83
2023-04-26T08:51:23.874Z,70.61
2023-04-26T08:52:23.868Z,71.14
2023-04-26T08:53:23.871Z,64.96
2023-04-26T08:54:23.909Z,72.27
2023-04-26T08:55:23.845Z,71.78
2023-04-26T08:56:23.820Z,71.19
2023-04-26T08:57:23.826Z,67.81
2023-04-26T08:58:23.810Z,71.12
2023-04-26T08:59:23.845Z,70.79
2023-04-26T09:00:23.852Z,71.30
2023-04-26T09:01:23.892Z,71.78
2023-04-26T09:02:24.017Z,69.27
2023-04-26T09:03:23.964Z,68.21
2023-04-26T09:04:23.919Z,71.01
2023-04-26T09:05:23.806Z,69.07
2023-04-26T09:06:23.840Z,68.21
2023-04-26T09:07:23.790Z,71.94
2023-04-26T09:08:23.774Z,72.24
2023-04-26T09:09:23.753Z,69.81
2023-04-26T09:10:23.888Z,68.48
2023-04-26T09:11:23.734Z,69.46
2023-04-26T09:12:23.801Z,66.31
2023-04-26T09:13:23.742Z,72.69
2023-04-26T09:14:23.721Z,71.89
2023-04-26T09:15:23.771Z,71.34
2023-04-26T09:16:23.802Z,72.17
2023-04-26T09:17:23.737Z,71.06
2023-04-26T09:18:23.773Z,70.50
2023-04-26T09:19:23.712Z,71.16
2023-04-26T09:20:23.715Z,73.07
2023-04-26T09:21:23.742Z,70.35
2023-04-26T09:22:23.750Z,70.82
2023-04-26T09:23:23.667Z,72.56
2023-04-26T09:24:23.638Z,71.82
2023-04-26T09:25:24.444Z,71.38
2023-04-26T09:26:25.497Z,69.26
2023-04-26T09:27:23.651Z,71.08
2023-04-26T09:28:23.664Z,69.96
2023-04-26T09:29:23.670Z,71.58
2023-04-26T09:30:23.649Z,71.29
2023-04-26T09:31:23.677Z,69.94
2023-04-26T09:32:24.504Z,70.26
2023-04-26T09:33:23.668Z,69.11
2023-04-26T09:34:23.622Z,70.87
2023-04-26T09:35:23.617Z,70.07
2023-04-26T09:36:24.603Z,69.36
2023-04-26T09:37:23.610Z,68.19
2023-04-26T09:38:23.547Z,68.24
2023-04-26T09:39:23.616Z,71.45
2023-04-26T09:40:23.568Z,69.07
2023-04-26T09:41:23.551Z,69.97
2023-04-26T09:42:23.573Z,72.65
2023-04-26T09:43:23.546Z,67.94
2023-04-26T09:44:24.498Z,68.22
2023-04-26T09:45:23.585Z,72.41
2023-04-26T09:46:23.538Z,73.08
2023-04-26T09:47:23.596Z,69.84
2023-04-26T09:48:23.523Z,67.31
2023-04-26T09:49:23.497Z,72.43
2023-04-26T09:50:23.496Z,71.28
2023-04-26T09:51:23.503Z,70.11
2023-04-26T09:52:23.489Z,70.96
2023-04-26T09:53:23.490Z,70.93
2023-04-26T09:54:23.495Z,72.51
2023-04-26T09:55:34.211Z,71.00
2023-04-26T09:56:25.461Z,73.16
2023-04-26T09:57:23.461Z,71.93
2023-04-26T09:58:23.424Z,70.06
2023-04-26T09:59:23.425Z,71.32
2023-04-26T10:00:23.429Z,71.76
2023-04-26T10:01:23.478Z,70.51
2023-04-26T10:02:23.561Z,70.71
2023-04-26T10:03:23.568Z,69.75
2023-04-26T10:04:23.478Z,68.35
2023-04-26T10:05:23.441Z,70.01
2023-04-26T10:06:23.365Z,71.83
2023-04-26T10:07:23.418Z,69.98
2023-04-26T10:08:23.357Z,72.67
2023-04-26T10:09:23.419Z,65.32
2023-04-26T10:10:23.381Z,71.57
2023-04-26T10:11:23.423Z,75.07
2023-04-26T10:12:23.350Z,71.73
2023-04-26T10:13:23.361Z,70.83
2023-04-26T10:14:23.320Z,68.99
2023-04-26T10:15:23.312Z,68.59
2023-04-26T10:16:23.439Z,71.50
2023-04-26T10:17:23.454Z,66.09
2023-04-26T10:18:23.369Z,73.18
2023-04-26T10:19:23.321Z,70.18
2023-04-26T10:20:23.306Z,71.57
2023-04-26T10:21:23.307Z,71.27
2023-04-26T10:22:23.312Z,74.31
2023-04-26T10:23:23.283Z,68.93
2023-04-26T10:24:23.290Z,73.85
2023-04-26T10:25:23.306Z,72.35
2023-04-26T10:26:23.328Z,64.57
2023-04-26T10:27:23.247Z,66.98
2023-04-26T10:28:23.291Z,66.72
2023-04-26T10:29:23.273Z,67.83
2023-04-26T10:30:23.319Z,68.65
2023-04-26T10:31:23.307Z,70.93
2023-04-26T10:32:23.246Z,72.34
2023-04-26T10:33:23.256Z,68.97
2023-04-26T10:34:23.225Z,63.49
2023-04-26T10:35:23.218Z,71.18
2023-04-26T10:36:23.214Z,68.49
2023-04-26T10:37:23.216Z,72.36
2023-04-26T10:38:23.227Z,67.59
2023-04-26T10:39:23.214Z,64.65
2023-04-26T10:40:23.288Z,72.90
2023-04-26T10:41:23.152Z,69.57
2023-04-26T10:42:24.252Z,67.63
2023-04-26T10:43:24.427Z,69.54
2023-04-26T10:44:23.175Z,70.62
2023-04-26T10:45:23.121Z,71.91
2023-04-26T10:46:23.231Z,67.35
2023-04-26T10:47:23.242Z,71.65
2023-04-26T10:48:23.133Z,71.74
2023-04-26T10:49:25.663Z,70.84
2023-04-26T10:50:23.099Z,68.07
2023-04-26T10:51:23.096Z,68.21
2023-04-26T10:52:23.243Z,68.68
2023-04-26T10:53:23.067Z,70.03
2023-04-26T10:54:23.190Z,69.40
2023-04-26T10:55:25.376Z,70.61
2023-04-26T10:56:24.137Z,70.12
2023-04-26T10:57:23.065Z,64.98
2023-04-26T10:58:23.049Z,74.06
2023-04-26T10:59:36.810Z,71.06
2023-04-26T11:00:25.057Z,70.46
2023-04-26T11:01:23.090Z,71.20
2023-04-26T11:02:23.057Z,71.31
2023-04-26T11:03:23.189Z,70.46
2023-04-26T11:04:23.257Z,69.12
2023-04-26T11:05:24.806Z,69.67
2023-04-26T11:06:22.996Z,76.24
2023-04-26T11:07:22.991Z,70.87
2023-04-26T11:08:22.995Z,69.50
2023-04-26T11:09:22.980Z,69.91
2023-04-26T11:10:23.059Z,70.46
2023-04-26T11:11:22.996Z,71.06
2023-04-26T11:12:22.985Z,71.00
2023-04-26T11:13:22.942Z,69.41
2023-04-26T11:14:22.962Z,64.68
2023-04-26T11:15:22.964Z,70.04
2023-04-26T11:16:22.960Z,71.09
2023-04-26T11:17:23.018Z,69.29
2023-04-26T11:18:22.925Z,71.27
2023-04-26T11:19:22.926Z,71.32
2023-04-26T11:20:22.949Z,69.81
2023-04-26T11:21:22.900Z,71.01
2023-04-26T11:22:22.914Z,70.24
2023-04-26T11:23:22.938Z,72.81
2023-04-26T11:24:22.883Z,69.20
2023-04-26T11:25:22.952Z,70.11
2023-04-26T11:26:23.006Z,69.95
2023-04-26T11:27:22.912Z,65.01
2023-04-26T11:28:22.878Z,67.09
2023-04-26T11:29:22.853Z,67.05
2023-04-26T11:30:22.836Z,71.60
2023-04-26T11:31:23.659Z,70.68
2023-04-26T11:32:22.824Z,68.57
2023-04-26T11:33:22.870Z,71.45
2023-04-26T11:34:22.830Z,68.83
2023-04-26T11:35:22.812Z,72.37
2023-04-26T11:36:22.821Z,69.75
2023-04-26T11:37:22.804Z,73.61
2023-04-26T11:38:22.817Z,70.36
2023-04-26T11:39:23.812Z,71.57
2023-04-26T11:40:22.786Z,71.82
2023-04-26T11:41:22.773Z,71.84
2023-04-26T11:42:22.796Z,71.21
2023-04-26T11:43:22.816Z,71.37
2023-04-26T11:44:22.759Z,71.90
2023-04-26T11:45:22.789Z,72.20
2023-04-26T11:46:22.824Z,70.97
2023-04-26T11:47:22.755Z,70.42
2023-04-26T11:48:22.877Z,69.54
2023-04-26T11:49:22.747Z,72.70
2023-04-26T11:50:22.733Z,70.16
2023-04-26T11:51:22.748Z,71.47
2023-04-26T11:52:22.699Z,70.92
2023-04-26T11:53:22.730Z,73.67
2023-04-26T11:54:22.691Z,71.10
2023-04-26T11:55:22.713Z,71.71
2023-04-26T11:56:22.708Z,70.15
2023-04-26T11:57:22.683Z,69.60
2023-04-26T11:58:22.689Z,75.28
2023-04-26T11:59:22.716Z,73.18
2023-04-26T12:00:22.680Z,72.80
2023-04-26T12:01:22.733Z,72.41
2023-04-26T12:02:22.781Z,73.35
2023-04-26T12:03:22.878Z,68.58
2023-04-26T12:04:22.796Z,70.38
2023-04-26T12:05:22.739Z,71.63
2023-04-26T12:06:22.637Z,72.22
2023-04-26T12:07:22.623Z,70.52
2023-04-26T12:08:22.631Z,73.23
2023-04-26T12:09:22.626Z,71.75
2023-04-26T12:10:22.681Z,71.05
2023-04-26T12:11:22.615Z,71.28
2023-04-26T12:12:22.588Z,71.39
2023-04-26T12:13:22.683Z,72.91
2023-04-26T12:14:23.555Z,74.22
2023-04-26T12:15:22.562Z,71.76
2023-04-26T12:16:26.084Z,73.47
2023-04-26T12:17:23.624Z,71.30
2023-04-26T12:18:22.569Z,76.42
2023-04-26T12:19:22.564Z,71.57
2023-04-26T12:20:55.939Z,70.71
2023-04-26T12:21:22.504Z,75.05
2023-04-26T12:22:22.502Z,74.84
2023-04-26T12:23:22.545Z,74.04
2023-04-26T12:24:22.536Z,74.16
2023-04-26T12:25:22.483Z,74.10
2023-04-26T12:26:22.503Z,73.31
2023-04-26T12:27:22.509Z,72.02
2023-04-26T12:28:22.477Z,74.35
2023-04-26T12:29:22.490Z,72.47
2023-04-26T12:30:22.493Z,71.58
2023-04-26T12:31:23.515Z,73.34
2023-04-26T12:32:22.877Z,72.51
2023-04-26T12:33:23.553Z,70.50
2023-04-26T12:34:22.479Z,73.89
2023-04-26T12:35:22.503Z,74.39
2023-04-26T12:36:22.415Z,72.00
2023-04-26T12:37:22.412Z,71.01
2023-04-26T12:38:22.472Z,73.54
2023-04-26T12:39:22.436Z,72.20
2023-04-26T12:40:55.821Z,72.72
2023-04-26T12:41:22.411Z,70.79
2023-04-26T12:42:23.027Z,74.94
2023-04-26T12:43:22.419Z,73.37
2023-04-26T12:44:22.793Z,72.82
2023-04-26T12:45:22.398Z,73.12
2023-04-26T12:46:22.431Z,70.45
2023-04-26T12:47:22.405Z,74.32
2023-04-26T12:48:22.350Z,72.22
2023-04-26T12:49:22.384Z,73.11
2023-04-26T12:50:23.372Z,73.43
2023-04-26T12:51:22.389Z,73.11
2023-04-26T12:52:22.358Z,73.36